sensor_id;sensor_type;location;lat;lon;timestamp;temperature;humidity
70366;DHT22;57787;48.216;12.396;2023-05-23T00:00:21;15.80;79.60
70366;DHT22;57787;48.216;12.396;2023-05-23T00:02:49;15.80;80.30
70366;DHT22;57787;48.216;12.396;2023-05-23T00:05:18;15.80;80.40
70366;DHT22;57787;48.216;12.396;2023-05-23T00:07:45;15.70;79.80
70366;DHT22;57787;48.216;12.396;2023-05-23T00:10:12;15.70;80.30
70366;DHT22;57787;48.216;12.396;2023-05-23T00:12:39;15.70;79.80
70366;DHT22;57787;48.216;12.396;2023-05-23T00:15:08;15.70;80.40
70366;DHT22;57787;48.216;12.396;2023-05-23T00:17:35;15.60;80.20
70366;DHT22;57787;48.216;12.396;2023-05-23T00:20:04;15.60;80.10
70366;DHT22;57787;48.216;12.396;2023-05-23T00:22:31;15.50;80.10
70366;DHT22;57787;48.216;12.396;2023-05-23T00:24:58;15.50;80.40
70366;DHT22;57787;48.216;12.396;2023-05-23T00:27:28;15.50;79.60
70366;DHT22;57787;48.216;12.396;2023-05-23T00:29:55;15.50;80.20
70366;DHT22;57787;48.216;12.396;2023-05-23T00:32:22;15.50;80.70
70366;DHT22;57787;48.216;12.396;2023-05-23T00:34:49;15.50;79.70
70366;DHT22;57787;48.216;12.396;2023-05-23T00:37:16;15.50;80.30
70366;DHT22;57787;48.216;12.396;2023-05-23T00:39:44;15.40;80.20
70366;DHT22;57787;48.216;12.396;2023-05-23T00:42:11;15.50;81.30
70366;DHT22;57787;48.216;12.396;2023-05-23T00:44:38;15.40;80.80
70366;DHT22;57787;48.216;12.396;2023-05-23T00:47:05;15.40;80.80
70366;DHT22;57787;48.216;12.396;2023-05-23T00:49:37;15.30;81.00
70366;DHT22;57787;48.216;12.396;2023-05-23T00:52:05;15.30;81.00
70366;DHT22;57787;48.216;12.396;2023-05-23T00:54:32;15.30;81.70
70366;DHT22;57787;48.216;12.396;2023-05-23T00:57:00;15.30;81.20
70366;DHT22;57787;48.216;12.396;2023-05-23T00:59:27;15.30;80.90
70366;DHT22;57787;48.216;12.396;2023-05-23T01:01:55;15.30;81.20
70366;DHT22;57787;48.216;12.396;2023-05-23T01:04:22;15.20;80.90
70366;DHT22;57787;48.216;12.396;2023-05-23T01:06:55;15.20;81.80
70366;DHT22;57787;48.216;12.396;2023-05-23T01:09:23;15.20;81.60
70366;DHT22;57787;48.216;12.396;2023-05-23T01:14:25;15.10;81.50
70366;DHT22;57787;48.216;12.396;2023-05-23T01:16:57;15.00;81.60
70366;DHT22;57787;48.216;12.396;2023-05-23T01:21:57;15.00;82.50
70366;DHT22;57787;48.216;12.396;2023-05-23T01:24:40;14.90;82.00
70366;DHT22;57787;48.216;12.396;2023-05-23T01:30:05;14.90;82.00
70366;DHT22;57787;48.216;12.396;2023-05-23T01:32:34;14.80;82.50
70366;DHT22;57787;48.216;12.396;2023-05-23T01:35:02;14.80;82.60
70366;DHT22;57787;48.216;12.396;2023-05-23T01:37:29;14.80;82.60
70366;DHT22;57787;48.216;12.396;2023-05-23T01:39:57;14.80;82.80
70366;DHT22;57787;48.216;12.396;2023-05-23T01:42:24;14.80;82.60
70366;DHT22;57787;48.216;12.396;2023-05-23T01:44:53;14.70;82.90
70366;DHT22;57787;48.216;12.396;2023-05-23T01:47:20;14.70;82.90
70366;DHT22;57787;48.216;12.396;2023-05-23T01:49:47;14.70;83.60
70366;DHT22;57787;48.216;12.396;2023-05-23T01:52:14;14.60;83.60
70366;DHT22;57787;48.216;12.396;2023-05-23T01:54:41;14.60;83.40
70366;DHT22;57787;48.216;12.396;2023-05-23T01:57:11;14.60;83.70
70366;DHT22;57787;48.216;12.396;2023-05-23T01:59:38;14.60;83.10
70366;DHT22;57787;48.216;12.396;2023-05-23T02:02:05;14.60;83.20
70366;DHT22;57787;48.216;12.396;2023-05-23T02:04:32;14.60;83.30
70366;DHT22;57787;48.216;12.396;2023-05-23T02:06:59;14.60;83.50
70366;DHT22;57787;48.216;12.396;2023-05-23T02:09:26;14.60;83.70
70366;DHT22;57787;48.216;12.396;2023-05-23T02:11:53;14.60;83.10
70366;DHT22;57787;48.216;12.396;2023-05-23T02:14:20;14.60;83.30
70366;DHT22;57787;48.216;12.396;2023-05-23T02:16:47;14.60;83.50
70366;DHT22;57787;48.216;12.396;2023-05-23T02:19:14;14.60;83.60
70366;DHT22;57787;48.216;12.396;2023-05-23T02:21:41;14.50;83.50
70366;DHT22;57787;48.216;12.396;2023-05-23T02:24:08;14.60;83.60
70366;DHT22;57787;48.216;12.396;2023-05-23T02:26:35;14.50;83.40
70366;DHT22;57787;48.216;12.396;2023-05-23T02:29:02;14.50;83.60
70366;DHT22;57787;48.216;12.396;2023-05-23T02:31:29;14.50;84.10
70366;DHT22;57787;48.216;12.396;2023-05-23T02:33:57;14.50;83.50
70366;DHT22;57787;48.216;12.396;2023-05-23T02:36:23;14.50;83.70
70366;DHT22;57787;48.216;12.396;2023-05-23T02:38:50;14.50;84.10
70366;DHT22;57787;48.216;12.396;2023-05-23T02:41:17;14.40;84.10
70366;DHT22;57787;48.216;12.396;2023-05-23T02:43:45;14.40;83.90
70366;DHT22;57787;48.216;12.396;2023-05-23T02:46:12;14.40;84.40
70366;DHT22;57787;48.216;12.396;2023-05-23T02:48:40;14.40;83.70
70366;DHT22;57787;48.216;12.396;2023-05-23T02:51:07;14.40;84.00
70366;DHT22;57787;48.216;12.396;2023-05-23T02:53:34;14.40;84.70
70366;DHT22;57787;48.216;12.396;2023-05-23T02:56:01;14.40;84.30
70366;DHT22;57787;48.216;12.396;2023-05-23T02:58:28;14.40;84.90
70366;DHT22;57787;48.216;12.396;2023-05-23T03:00:55;14.40;84.80
70366;DHT22;57787;48.216;12.396;2023-05-23T03:03:22;14.40;84.70
70366;DHT22;57787;48.216;12.396;2023-05-23T03:05:49;14.50;84.90
70366;DHT22;57787;48.216;12.396;2023-05-23T03:08:17;14.40;84.70
70366;DHT22;57787;48.216;12.396;2023-05-23T03:10:44;14.50;84.90
70366;DHT22;57787;48.216;12.396;2023-05-23T03:13:11;14.50;85.00
70366;DHT22;57787;48.216;12.396;2023-05-23T03:15:38;14.40;84.60
70366;DHT22;57787;48.216;12.396;2023-05-23T03:18:05;14.50;84.80
70366;DHT22;57787;48.216;12.396;2023-05-23T03:20:34;14.50;85.10
70366;DHT22;57787;48.216;12.396;2023-05-23T03:23:03;14.50;85.00
70366;DHT22;57787;48.216;12.396;2023-05-23T03:25:30;14.50;85.10
70366;DHT22;57787;48.216;12.396;2023-05-23T03:28:00;14.50;85.20
70366;DHT22;57787;48.216;12.396;2023-05-23T03:30:27;14.60;85.10
70366;DHT22;57787;48.216;12.396;2023-05-23T03:32:54;14.60;85.00
70366;DHT22;57787;48.216;12.396;2023-05-23T03:35:24;14.60;84.70
70366;DHT22;57787;48.216;12.396;2023-05-23T03:37:51;14.60;84.90
70366;DHT22;57787;48.216;12.396;2023-05-23T03:40:19;14.80;85.10
70366;DHT22;57787;48.216;12.396;2023-05-23T03:42:46;14.80;85.10
70366;DHT22;57787;48.216;12.396;2023-05-23T03:45:15;14.80;85.30
70366;DHT22;57787;48.216;12.396;2023-05-23T03:47:43;14.80;85.30
70366;DHT22;57787;48.216;12.396;2023-05-23T03:50:10;14.90;85.40
70366;DHT22;57787;48.216;12.396;2023-05-23T03:52:37;15.00;85.30
70366;DHT22;57787;48.216;12.396;2023-05-23T03:55:03;15.10;85.00
70366;DHT22;57787;48.216;12.396;2023-05-23T03:57:31;15.10;84.80
70366;DHT22;57787;48.216;12.396;2023-05-23T03:59:58;15.20;84.70
70366;DHT22;57787;48.216;12.396;2023-05-23T04:02:26;15.30;84.60
70366;DHT22;57787;48.216;12.396;2023-05-23T04:04:54;15.40;84.50
70366;DHT22;57787;48.216;12.396;2023-05-23T04:07:23;15.50;84.00
70366;DHT22;57787;48.216;12.396;2023-05-23T04:09:53;15.50;83.80
70366;DHT22;57787;48.216;12.396;2023-05-23T04:12:20;15.70;83.70
70366;DHT22;57787;48.216;12.396;2023-05-23T04:14:48;15.70;83.20
70366;DHT22;57787;48.216;12.396;2023-05-23T04:17:15;15.80;82.90
70366;DHT22;57787;48.216;12.396;2023-05-23T04:19:43;15.90;82.80
70366;DHT22;57787;48.216;12.396;2023-05-23T04:22:10;16.00;82.40
70366;DHT22;57787;48.216;12.396;2023-05-23T04:24:37;16.10;82.00
70366;DHT22;57787;48.216;12.396;2023-05-23T04:27:05;16.20;81.70
70366;DHT22;57787;48.216;12.396;2023-05-23T04:29:33;16.30;81.40
70366;DHT22;57787;48.216;12.396;2023-05-23T04:32:01;16.30;80.70
70366;DHT22;57787;48.216;12.396;2023-05-23T04:34:28;16.40;80.80
70366;DHT22;57787;48.216;12.396;2023-05-23T04:36:56;16.50;80.50
70366;DHT22;57787;48.216;12.396;2023-05-23T04:39:23;16.60;80.40
70366;DHT22;57787;48.216;12.396;2023-05-23T04:41:50;16.70;80.10
70366;DHT22;57787;48.216;12.396;2023-05-23T04:44:17;16.80;80.00
70366;DHT22;57787;48.216;12.396;2023-05-23T04:46:46;16.90;79.60
70366;DHT22;57787;48.216;12.396;2023-05-23T04:49:13;17.10;79.40
70366;DHT22;57787;48.216;12.396;2023-05-23T04:51:40;17.30;79.20
70366;DHT22;57787;48.216;12.396;2023-05-23T04:54:07;17.40;78.50
70366;DHT22;57787;48.216;12.396;2023-05-23T04:56:34;17.80;78.20
70366;DHT22;57787;48.216;12.396;2023-05-23T04:59:01;18.20;77.20
70366;DHT22;57787;48.216;12.396;2023-05-23T05:01:28;18.30;76.20
70366;DHT22;57787;48.216;12.396;2023-05-23T05:03:55;18.40;75.70
70366;DHT22;57787;48.216;12.396;2023-05-23T05:06:22;18.40;75.60
70366;DHT22;57787;48.216;12.396;2023-05-23T05:08:50;18.40;75.60
70366;DHT22;57787;48.216;12.396;2023-05-23T05:11:17;18.40;75.70
70366;DHT22;57787;48.216;12.396;2023-05-23T05:13:44;18.30;75.80
70366;DHT22;57787;48.216;12.396;2023-05-23T05:16:11;18.30;75.70
70366;DHT22;57787;48.216;12.396;2023-05-23T05:18:37;18.30;75.90
70366;DHT22;57787;48.216;12.396;2023-05-23T05:21:04;18.30;76.10
70366;DHT22;57787;48.216;12.396;2023-05-23T05:23:31;18.30;76.10
70366;DHT22;57787;48.216;12.396;2023-05-23T05:25:58;18.30;76.10
70366;DHT22;57787;48.216;12.396;2023-05-23T05:28:26;18.30;76.10
70366;DHT22;57787;48.216;12.396;2023-05-23T05:30:53;18.40;76.50
70366;DHT22;57787;48.216;12.396;2023-05-23T05:33:20;18.80;75.90
70366;DHT22;57787;48.216;12.396;2023-05-23T05:35:49;19.30;75.60
70366;DHT22;57787;48.216;12.396;2023-05-23T05:38:19;19.90;74.10
70366;DHT22;57787;48.216;12.396;2023-05-23T05:40:49;20.70;71.80
70366;DHT22;57787;48.216;12.396;2023-05-23T05:43:15;21.20;69.50
70366;DHT22;57787;48.216;12.396;2023-05-23T05:45:42;21.30;68.40
70366;DHT22;57787;48.216;12.396;2023-05-23T05:48:09;21.40;67.60
70366;DHT22;57787;48.216;12.396;2023-05-23T05:50:38;21.40;67.40
70366;DHT22;57787;48.216;12.396;2023-05-23T05:53:06;21.40;67.20
70366;DHT22;57787;48.216;12.396;2023-05-23T05:55:34;21.50;67.10
70366;DHT22;57787;48.216;12.396;2023-05-23T05:58:02;21.80;66.40
70366;DHT22;57787;48.216;12.396;2023-05-23T06:00:29;21.90;65.60
70366;DHT22;57787;48.216;12.396;2023-05-23T06:02:56;21.90;64.90
70366;DHT22;57787;48.216;12.396;2023-05-23T06:05:23;21.80;64.80
70366;DHT22;57787;48.216;12.396;2023-05-23T06:07:50;21.80;64.90
70366;DHT22;57787;48.216;12.396;2023-05-23T06:10:17;21.60;65.30
70366;DHT22;57787;48.216;12.396;2023-05-23T06:12:44;21.70;65.90
70366;DHT22;57787;48.216;12.396;2023-05-23T06:15:11;21.80;65.30
70366;DHT22;57787;48.216;12.396;2023-05-23T06:17:41;22.00;65.30
70366;DHT22;57787;48.216;12.396;2023-05-23T06:20:10;22.20;65.50
70366;DHT22;57787;48.216;12.396;2023-05-23T06:22:38;22.50;64.20
70366;DHT22;57787;48.216;12.396;2023-05-23T06:25:05;22.80;64.50
70366;DHT22;57787;48.216;12.396;2023-05-23T06:27:33;23.00;62.80
70366;DHT22;57787;48.216;12.396;2023-05-23T06:30:01;23.20;63.00
70366;DHT22;57787;48.216;12.396;2023-05-23T06:32:28;23.50;62.60
70366;DHT22;57787;48.216;12.396;2023-05-23T06:34:55;23.50;60.50
70366;DHT22;57787;48.216;12.396;2023-05-23T06:37:22;23.60;61.00
70366;DHT22;57787;48.216;12.396;2023-05-23T06:39:49;23.70;60.80
70366;DHT22;57787;48.216;12.396;2023-05-23T06:42:19;23.80;61.00
70366;DHT22;57787;48.216;12.396;2023-05-23T06:44:46;23.80;60.00
70366;DHT22;57787;48.216;12.396;2023-05-23T06:47:13;23.80;60.50
70366;DHT22;57787;48.216;12.396;2023-05-23T06:49:39;23.90;57.80
70366;DHT22;57787;48.216;12.396;2023-05-23T06:52:06;24.00;57.90
70366;DHT22;57787;48.216;12.396;2023-05-23T06:54:35;24.00;58.00
70366;DHT22;57787;48.216;12.396;2023-05-23T06:57:01;24.10;60.40
70366;DHT22;57787;48.216;12.396;2023-05-23T06:59:29;24.20;58.90
70366;DHT22;57787;48.216;12.396;2023-05-23T07:01:56;24.20;59.50
70366;DHT22;57787;48.216;12.396;2023-05-23T07:04:22;24.30;58.40
70366;DHT22;57787;48.216;12.396;2023-05-23T07:06:49;24.50;59.30
70366;DHT22;57787;48.216;12.396;2023-05-23T07:09:18;24.60;57.80
70366;DHT22;57787;48.216;12.396;2023-05-23T07:11:45;24.60;58.80
70366;DHT22;57787;48.216;12.396;2023-05-23T07:14:12;24.60;57.30
70366;DHT22;57787;48.216;12.396;2023-05-23T07:16:41;24.60;57.20
70366;DHT22;57787;48.216;12.396;2023-05-23T07:19:08;24.70;56.70
70366;DHT22;57787;48.216;12.396;2023-05-23T07:21:34;24.80;57.70
70366;DHT22;57787;48.216;12.396;2023-05-23T07:24:01;24.90;57.50
70366;DHT22;57787;48.216;12.396;2023-05-23T07:26:28;25.10;57.90
70366;DHT22;57787;48.216;12.396;2023-05-23T07:28:55;25.30;58.20
70366;DHT22;57787;48.216;12.396;2023-05-23T07:31:22;25.30;55.50
70366;DHT22;57787;48.216;12.396;2023-05-23T07:33:49;25.20;55.30
70366;DHT22;57787;48.216;12.396;2023-05-23T07:36:20;24.90;57.70
70366;DHT22;57787;48.216;12.396;2023-05-23T07:38:48;24.70;57.30
70366;DHT22;57787;48.216;12.396;2023-05-23T07:41:15;24.60;58.90
70366;DHT22;57787;48.216;12.396;2023-05-23T07:43:41;24.90;57.90
70366;DHT22;57787;48.216;12.396;2023-05-23T07:46:08;24.80;58.40
70366;DHT22;57787;48.216;12.396;2023-05-23T07:48:35;24.40;57.30
70366;DHT22;57787;48.216;12.396;2023-05-23T07:51:02;24.40;57.70
70366;DHT22;57787;48.216;12.396;2023-05-23T07:53:29;24.30;58.00
70366;DHT22;57787;48.216;12.396;2023-05-23T07:55:56;24.30;58.80
70366;DHT22;57787;48.216;12.396;2023-05-23T07:58:23;24.20;58.80
70366;DHT22;57787;48.216;12.396;2023-05-23T08:00:49;24.20;57.90
70366;DHT22;57787;48.216;12.396;2023-05-23T08:03:18;24.10;59.90
70366;DHT22;57787;48.216;12.396;2023-05-23T08:05:46;24.00;59.20
70366;DHT22;57787;48.216;12.396;2023-05-23T08:08:13;23.90;58.40
70366;DHT22;57787;48.216;12.396;2023-05-23T08:10:40;24.00;58.80
70366;DHT22;57787;48.216;12.396;2023-05-23T08:13:10;24.00;59.80
70366;DHT22;57787;48.216;12.396;2023-05-23T08:15:37;24.30;59.70
70366;DHT22;57787;48.216;12.396;2023-05-23T08:18:04;24.30;57.20
70366;DHT22;57787;48.216;12.396;2023-05-23T08:20:31;24.10;58.30
70366;DHT22;57787;48.216;12.396;2023-05-23T08:22:59;24.00;58.00
70366;DHT22;57787;48.216;12.396;2023-05-23T08:25:26;24.10;60.70
70366;DHT22;57787;48.216;12.396;2023-05-23T08:27:58;24.30;59.80
70366;DHT22;57787;48.216;12.396;2023-05-23T08:30:26;24.30;57.60
70366;DHT22;57787;48.216;12.396;2023-05-23T08:32:53;24.30;58.00
70366;DHT22;57787;48.216;12.396;2023-05-23T08:35:21;24.40;58.80
70366;DHT22;57787;48.216;12.396;2023-05-23T08:37:48;24.50;58.40
70366;DHT22;57787;48.216;12.396;2023-05-23T08:40:19;24.50;58.00
70366;DHT22;57787;48.216;12.396;2023-05-23T08:42:47;24.70;58.30
70366;DHT22;57787;48.216;12.396;2023-05-23T08:45:15;24.80;58.00
70366;DHT22;57787;48.216;12.396;2023-05-23T08:47:42;24.80;56.30
70366;DHT22;57787;48.216;12.396;2023-05-23T08:50:16;24.90;57.70
70366;DHT22;57787;48.216;12.396;2023-05-23T08:52:55;25.10;57.60
70366;DHT22;57787;48.216;12.396;2023-05-23T08:55:26;25.30;56.70
70366;DHT22;57787;48.216;12.396;2023-05-23T08:57:54;25.40;56.10
70366;DHT22;57787;48.216;12.396;2023-05-23T09:00:28;25.50;54.40
70366;DHT22;57787;48.216;12.396;2023-05-23T09:02:56;25.50;55.90
70366;DHT22;57787;48.216;12.396;2023-05-23T09:05:25;25.80;55.80
70366;DHT22;57787;48.216;12.396;2023-05-23T09:07:52;25.80;54.50
70366;DHT22;57787;48.216;12.396;2023-05-23T09:10:20;25.80;56.10
70366;DHT22;57787;48.216;12.396;2023-05-23T09:12:47;25.80;56.20
70366;DHT22;57787;48.216;12.396;2023-05-23T09:15:15;26.20;58.80
70366;DHT22;57787;48.216;12.396;2023-05-23T09:17:43;26.10;55.50
70366;DHT22;57787;48.216;12.396;2023-05-23T09:20:11;26.10;55.00
70366;DHT22;57787;48.216;12.396;2023-05-23T09:22:39;26.10;54.50
70366;DHT22;57787;48.216;12.396;2023-05-23T09:25:07;26.00;55.20
70366;DHT22;57787;48.216;12.396;2023-05-23T09:27:33;25.90;55.30
70366;DHT22;57787;48.216;12.396;2023-05-23T09:30:04;25.80;56.60
70366;DHT22;57787;48.216;12.396;2023-05-23T09:32:31;25.90;56.40
70366;DHT22;57787;48.216;12.396;2023-05-23T09:34:59;25.90;55.60
70366;DHT22;57787;48.216;12.396;2023-05-23T09:40:10;25.80;58.20
70366;DHT22;57787;48.216;12.396;2023-05-23T09:42:40;25.70;55.40
70366;DHT22;57787;48.216;12.396;2023-05-23T09:45:07;25.90;55.90
70366;DHT22;57787;48.216;12.396;2023-05-23T09:47:35;26.10;55.90
70366;DHT22;57787;48.216;12.396;2023-05-23T09:50:02;26.30;55.40
70366;DHT22;57787;48.216;12.396;2023-05-23T09:52:35;26.40;54.30
70366;DHT22;57787;48.216;12.396;2023-05-23T09:55:06;26.40;53.20
70366;DHT22;57787;48.216;12.396;2023-05-23T09:57:34;26.30;53.30
70366;DHT22;57787;48.216;12.396;2023-05-23T10:00:03;26.30;54.50
70366;DHT22;57787;48.216;12.396;2023-05-23T10:02:52;26.70;55.10
70366;DHT22;57787;48.216;12.396;2023-05-23T10:07:57;27.00;51.80
70366;DHT22;57787;48.216;12.396;2023-05-23T10:10:27;26.80;51.90
70366;DHT22;57787;48.216;12.396;2023-05-23T10:12:54;26.70;54.00
70366;DHT22;57787;48.216;12.396;2023-05-23T10:15:23;26.90;54.30
70366;DHT22;57787;48.216;12.396;2023-05-23T10:18:00;27.00;55.00
70366;DHT22;57787;48.216;12.396;2023-05-23T10:20:31;27.00;53.30
70366;DHT22;57787;48.216;12.396;2023-05-23T10:22:59;27.00;52.90
70366;DHT22;57787;48.216;12.396;2023-05-23T10:25:27;26.90;51.70
70366;DHT22;57787;48.216;12.396;2023-05-23T10:27:54;26.90;53.30
70366;DHT22;57787;48.216;12.396;2023-05-23T10:30:25;26.90;52.60
70366;DHT22;57787;48.216;12.396;2023-05-23T10:32:55;27.10;53.90
70366;DHT22;57787;48.216;12.396;2023-05-23T10:38:43;27.30;54.00
70366;DHT22;57787;48.216;12.396;2023-05-23T10:41:15;27.30;50.40
70366;DHT22;57787;48.216;12.396;2023-05-23T10:43:49;27.30;50.60
70366;DHT22;57787;48.216;12.396;2023-05-23T10:46:18;27.40;50.50
70366;DHT22;57787;48.216;12.396;2023-05-23T10:48:51;27.20;50.70
70366;DHT22;57787;48.216;12.396;2023-05-23T10:51:19;26.90;50.50
70366;DHT22;57787;48.216;12.396;2023-05-23T10:53:52;26.90;53.70
70366;DHT22;57787;48.216;12.396;2023-05-23T10:56:20;27.00;52.60
70366;DHT22;57787;48.216;12.396;2023-05-23T10:58:53;26.90;51.20
70366;DHT22;57787;48.216;12.396;2023-05-23T11:01:23;26.80;50.00
70366;DHT22;57787;48.216;12.396;2023-05-23T11:03:51;27.00;52.80
70366;DHT22;57787;48.216;12.396;2023-05-23T11:06:38;27.10;51.10
70366;DHT22;57787;48.216;12.396;2023-05-23T11:09:08;27.10;51.20
70366;DHT22;57787;48.216;12.396;2023-05-23T11:14:16;26.80;51.00
70366;DHT22;57787;48.216;12.396;2023-05-23T11:16:44;26.80;50.90
70366;DHT22;57787;48.216;12.396;2023-05-23T11:21:49;26.80;50.60
70366;DHT22;57787;48.216;12.396;2023-05-23T11:24:16;26.80;50.00
70366;DHT22;57787;48.216;12.396;2023-05-23T11:26:53;26.70;52.00
70366;DHT22;57787;48.216;12.396;2023-05-23T11:29:30;26.50;50.30
70366;DHT22;57787;48.216;12.396;2023-05-23T11:31:58;26.40;51.40
70366;DHT22;57787;48.216;12.396;2023-05-23T11:34:30;26.40;51.90
70366;DHT22;57787;48.216;12.396;2023-05-23T11:36:57;26.30;52.20
70366;DHT22;57787;48.216;12.396;2023-05-23T11:39:24;26.10;53.70
70366;DHT22;57787;48.216;12.396;2023-05-23T11:41:58;26.20;53.20
70366;DHT22;57787;48.216;12.396;2023-05-23T11:44:26;26.10;50.30
70366;DHT22;57787;48.216;12.396;2023-05-23T11:47:03;25.80;50.10
70366;DHT22;57787;48.216;12.396;2023-05-23T11:49:34;25.60;51.90
70366;DHT22;57787;48.216;12.396;2023-05-23T11:52:01;25.40;54.10
70366;DHT22;57787;48.216;12.396;2023-05-23T11:54:28;25.50;51.50
70366;DHT22;57787;48.216;12.396;2023-05-23T11:56:56;25.60;52.10
70366;DHT22;57787;48.216;12.396;2023-05-23T11:59:25;25.80;53.80
70366;DHT22;57787;48.216;12.396;2023-05-23T12:01:54;26.10;53.00
70366;DHT22;57787;48.216;12.396;2023-05-23T12:04:23;26.30;52.10
70366;DHT22;57787;48.216;12.396;2023-05-23T12:06:50;26.60;51.20
70366;DHT22;57787;48.216;12.396;2023-05-23T12:09:18;26.90;52.90
70366;DHT22;57787;48.216;12.396;2023-05-23T12:11:45;27.00;51.20
70366;DHT22;57787;48.216;12.396;2023-05-23T12:14:15;27.00;51.00
70366;DHT22;57787;48.216;12.396;2023-05-23T12:16:43;26.60;50.20
70366;DHT22;57787;48.216;12.396;2023-05-23T12:19:15;26.60;52.00
70366;DHT22;57787;48.216;12.396;2023-05-23T12:21:44;26.40;53.00
70366;DHT22;57787;48.216;12.396;2023-05-23T12:26:48;26.10;51.20
70366;DHT22;57787;48.216;12.396;2023-05-23T12:29:17;26.00;51.40
70366;DHT22;57787;48.216;12.396;2023-05-23T12:31:44;26.00;53.40
70366;DHT22;57787;48.216;12.396;2023-05-23T12:34:13;26.00;53.50
70366;DHT22;57787;48.216;12.396;2023-05-23T12:36:41;25.80;52.60
70366;DHT22;57787;48.216;12.396;2023-05-23T12:39:15;25.50;53.70
70366;DHT22;57787;48.216;12.396;2023-05-23T12:41:43;25.40;53.40
70366;DHT22;57787;48.216;12.396;2023-05-23T12:44:16;25.40;54.20
70366;DHT22;57787;48.216;12.396;2023-05-23T12:46:53;25.60;52.40
70366;DHT22;57787;48.216;12.396;2023-05-23T12:49:23;25.80;53.00
70366;DHT22;57787;48.216;12.396;2023-05-23T12:51:54;26.00;50.60
70366;DHT22;57787;48.216;12.396;2023-05-23T12:54:21;26.30;51.10
70366;DHT22;57787;48.216;12.396;2023-05-23T12:56:48;26.30;49.90
70366;DHT22;57787;48.216;12.396;2023-05-23T12:59:14;26.40;51.30
70366;DHT22;57787;48.216;12.396;2023-05-23T13:01:46;26.30;49.90
70366;DHT22;57787;48.216;12.396;2023-05-23T13:04:13;26.20;50.70
70366;DHT22;57787;48.216;12.396;2023-05-23T13:06:43;26.20;50.60
70366;DHT22;57787;48.216;12.396;2023-05-23T13:09:10;26.20;49.20
70366;DHT22;57787;48.216;12.396;2023-05-23T13:11:38;25.90;50.50
70366;DHT22;57787;48.216;12.396;2023-05-23T13:14:09;25.70;51.70
70366;DHT22;57787;48.216;12.396;2023-05-23T13:16:36;25.40;49.60
70366;DHT22;57787;48.216;12.396;2023-05-23T13:19:04;25.50;51.90
70366;DHT22;57787;48.216;12.396;2023-05-23T13:21:32;25.70;53.20
70366;DHT22;57787;48.216;12.396;2023-05-23T13:23:59;25.80;50.10
70366;DHT22;57787;48.216;12.396;2023-05-23T13:26:26;26.00;49.90
70366;DHT22;57787;48.216;12.396;2023-05-23T13:28:55;26.30;49.90
70366;DHT22;57787;48.216;12.396;2023-05-23T13:31:22;26.40;49.70
70366;DHT22;57787;48.216;12.396;2023-05-23T13:33:50;26.40;48.90
70366;DHT22;57787;48.216;12.396;2023-05-23T13:36:17;26.40;48.30
70366;DHT22;57787;48.216;12.396;2023-05-23T13:38:44;26.20;48.90
70366;DHT22;57787;48.216;12.396;2023-05-23T13:41:11;26.10;47.90
70366;DHT22;57787;48.216;12.396;2023-05-23T13:43:38;26.10;48.30
70366;DHT22;57787;48.216;12.396;2023-05-23T13:46:05;26.10;49.50
70366;DHT22;57787;48.216;12.396;2023-05-23T13:48:33;26.20;49.20
70366;DHT22;57787;48.216;12.396;2023-05-23T13:51:01;26.20;49.40
70366;DHT22;57787;48.216;12.396;2023-05-23T13:53:28;25.90;47.00
70366;DHT22;57787;48.216;12.396;2023-05-23T13:55:55;25.90;48.00
70366;DHT22;57787;48.216;12.396;2023-05-23T13:58:22;25.80;47.60
70366;DHT22;57787;48.216;12.396;2023-05-23T14:00:49;25.90;48.00
70366;DHT22;57787;48.216;12.396;2023-05-23T14:03:16;25.80;47.10
70366;DHT22;57787;48.216;12.396;2023-05-23T14:05:45;25.80;47.80
70366;DHT22;57787;48.216;12.396;2023-05-23T14:08:13;25.60;48.00
70366;DHT22;57787;48.216;12.396;2023-05-23T14:10:41;25.40;49.30
70366;DHT22;57787;48.216;12.396;2023-05-23T14:13:08;25.30;48.60
70366;DHT22;57787;48.216;12.396;2023-05-23T14:15:35;25.20;46.90
70366;DHT22;57787;48.216;12.396;2023-05-23T14:18:04;25.10;47.80
70366;DHT22;57787;48.216;12.396;2023-05-23T14:20:45;25.10;49.20
70366;DHT22;57787;48.216;12.396;2023-05-23T14:23:12;25.00;49.40
70366;DHT22;57787;48.216;12.396;2023-05-23T14:25:40;25.30;48.00
70366;DHT22;57787;48.216;12.396;2023-05-23T14:28:10;25.40;48.20
70366;DHT22;57787;48.216;12.396;2023-05-23T14:30:37;25.50;48.90
70366;DHT22;57787;48.216;12.396;2023-05-23T14:33:03;25.50;50.10
70366;DHT22;57787;48.216;12.396;2023-05-23T14:35:30;25.50;46.70
70366;DHT22;57787;48.216;12.396;2023-05-23T14:37:57;25.50;46.40
70366;DHT22;57787;48.216;12.396;2023-05-23T14:40:25;25.40;47.10
70366;DHT22;57787;48.216;12.396;2023-05-23T14:42:52;25.30;48.20
70366;DHT22;57787;48.216;12.396;2023-05-23T14:45:19;25.30;46.40
70366;DHT22;57787;48.216;12.396;2023-05-23T14:47:46;25.20;47.70
70366;DHT22;57787;48.216;12.396;2023-05-23T14:50:13;25.00;47.30
70366;DHT22;57787;48.216;12.396;2023-05-23T14:52:42;25.00;47.60
70366;DHT22;57787;48.216;12.396;2023-05-23T14:55:10;25.10;48.00
70366;DHT22;57787;48.216;12.396;2023-05-23T14:57:37;25.10;47.80
70366;DHT22;57787;48.216;12.396;2023-05-23T15:00:04;25.30;47.80
70366;DHT22;57787;48.216;12.396;2023-05-23T15:02:32;25.20;46.70
70366;DHT22;57787;48.216;12.396;2023-05-23T15:04:59;25.10;48.30
70366;DHT22;57787;48.216;12.396;2023-05-23T15:07:28;25.10;46.90
70366;DHT22;57787;48.216;12.396;2023-05-23T15:09:57;25.00;47.50
70366;DHT22;57787;48.216;12.396;2023-05-23T15:12:25;25.00;48.20
70366;DHT22;57787;48.216;12.396;2023-05-23T15:14:52;25.00;47.50
70366;DHT22;57787;48.216;12.396;2023-05-23T15:17:19;25.10;47.60
70366;DHT22;57787;48.216;12.396;2023-05-23T15:19:51;25.20;48.90
70366;DHT22;57787;48.216;12.396;2023-05-23T15:22:21;25.10;49.30
70366;DHT22;57787;48.216;12.396;2023-05-23T15:24:57;25.00;48.10
70366;DHT22;57787;48.216;12.396;2023-05-23T15:27:24;24.90;46.40
70366;DHT22;57787;48.216;12.396;2023-05-23T15:29:51;24.80;46.40
70366;DHT22;57787;48.216;12.396;2023-05-23T15:32:18;24.80;45.90
70366;DHT22;57787;48.216;12.396;2023-05-23T15:34:45;24.60;46.80
70366;DHT22;57787;48.216;12.396;2023-05-23T15:37:13;24.70;49.10
70366;DHT22;57787;48.216;12.396;2023-05-23T15:39:39;24.50;46.60
70366;DHT22;57787;48.216;12.396;2023-05-23T15:42:06;24.50;49.10
70366;DHT22;57787;48.216;12.396;2023-05-23T15:44:35;24.50;46.40